Wetterstation Rottenburg Seebronn / 442m msl / http://mut-lambrecht.de
LETZTE AKTUALISIERUNG UM: 02:40 DATUM: Oktober 22 2017, time of next update: 02:45
Aktuelles WetterClear/Night Aktuelle Temperatur 9.6°C (49.3°F), Apparent temp 7.8°C
Höchsttemperatur (seit Mitternacht)10.1°C um: 00:00 Tiefsttemperatur (seit Mitternacht)9.6°C um: 00:26
Windgeschwindigkeit (10 Minuten )7.8 kmh (4.2 kts) Windrichtung (Dir) (10 Minuten )SW (223°)
Windchill Temperatur 8.5°C Windspitzen (letzte Std)13.2 kmh (7.1 kts) um: 02:38
Windspitzen (seit Mitternacht)25.9 kmh (14.0 kts) um: 01:02 Höchstes Windmittel / Minute (seit Mitternacht)17.1 kmh (9.2 kts) um: 01:06
Regenmenge (letzte Std)0.0 mm Regenmenge (seit Mitternacht)0.0 mm (0.00 in.)---
Regenmenge diesen Monat 63.7 mm (2.51 in.) Regenmenge seit Jahresbeginn 491.1 mm (19.33 in.)
Höchste Regenmenge pro Minute (letzte Std)0.0 mm/min Höchste Regenmenge pro Stunde (letzte 6 Std)0.0 mm/stunde
Regenmenge Gestern 2.1 mm Taupunkt 7.2°C (Wet Bulb :8.5°C )
Luftfeuchtigkeit 85 %, Humidex 9.7°C Aktueller Luftdruck (auf Meereshöhe bezogen)1016.5 hPa
Luftdrucktendenz 0.1 hPa (letzte Std) Trend (letzte 1 Std)gleichbleibend
Luftdrucktendenz (letzte 12 Std)+1.0 hPa Luftdrucktendenz (letzte 6 Std)+1.2 hPa

Wetterstations-Bericht: Die unterste minütlich aktualisierte Windechtzeitgrafik ist im Testbetrieb, und noch nicht vollständig konfiguriert



Weather report/warning/Metars

Stuttgart-Echterdingen, Germany (EDDS) 48-41N 009-13E 391M
Oct 21, 2017 - 08:20 PM EDT / 2017.10.22 0020 UTC
Wind: from the SSW (200 degrees) at 6 MPH (5 KT) (direction variable):0
Visibility: greater than 7 mile(s):0
Weather: light rain
Temperature: 51 F (11 C)
Dew Point: 48 F (9 C)
Relative Humidity: 87%
Pressure (altimeter): 30.06 in. Hg (1018 hPa)
ob: EDDS 220020Z 20005KT 150V240 9999 -RA NSC 11/09 Q1018
cycle: 0
Karlsruhe, Baden Wurttemberg, Germany (EDSB) 48-46-43N 008-04-47E
Oct 21, 2017 - 05:20 PM EDT / 2017.10.21 2120 UTC
Wind: from the SSW (200 degrees) at 14 MPH (12 KT):0
Visibility: greater than 7 mile(s):0
Sky conditions: mostly cloudy
Weather: light rain
Temperature: 51 F (11 C)
Dew Point: 50 F (10 C)
Relative Humidity: 93%
Pressure (altimeter): 30.03 in. Hg (1017 hPa)
ob: EDSB 212120Z 20012KT 9999 -RA FEW032 BKN050 11/10 Q1017
cycle: 21
Lahr, CAN-AFB, Germany (EDTL) 48-22-09N 007-49-40E
Oct 21, 2017 - 10:20 AM EDT / 2017.10.21 1420 UTC
Wind: from the SW (220 degrees) at 2 MPH (2 KT):0
Visibility: greater than 7 mile(s):0
Temperature: 68 F (20 C)
Dew Point: 53 F (12 C)
Relative Humidity: 59%
Pressure (altimeter): 29.97 in. Hg (1015 hPa)
ob: EDTL 211420Z 22002KT CAVOK 20/12 Q1015
cycle: 14
Laupheim, Germany (ETHL) 48-13N 009-55E 550M
Oct 21, 2017 - 08:20 PM EDT / 2017.10.22 0020 UTC
Wind: from the SW (220 degrees) at 10 MPH (9 KT):0
Visibility: greater than 7 mile(s):0
Sky conditions: mostly cloudy
Weather: light rain
Temperature: 48 F (9 C)
Dew Point: 44 F (7 C)
Relative Humidity: 87%
Pressure (altimeter): 30.12 in. Hg (1020 hPa)
ob: ETHL 220020Z 22009KT 9999 -RA BKN040 09/07 Q1020 RERA BLU
cycle: 0


Klicken Sie hier, um zu den Durchschnitts-, Extrem-, Monats- oder Tageswerten zu gelangen


Die Wetterdaten werden alle 5 Minuten aktualisiert.

Drücken Sie gegebenenfalls auf "Aktualisieren" in Ihrem Browser, um die aktuellsten Daten zu erhalten.